Time;durP1;ratioP1;P1;durP2;ratioP2;P2;SDS_P1;SDS_P2;PMS_P1;PMS_P2;Temp;Humidity;BMP_temperature;BMP_pressure;BME280_temperature;BME280_humidity;BME280_pressure;Samples;Min_cycle;Max_cycle;Signal;HPM_P1;HPM_P2
2022/07/20 00:01:02;;;;;;;;;;;22.80;74.40;;;;;;5014050;28;19950;-94
2022/07/20 00:03:28;;;;;;;;;;;22.70;75.20;;;;;;5014246;28;19943;-95
2022/07/20 00:05:53;;;;;;;;;;;22.60;74.60;;;;;;5012662;28;19965;-95
2022/07/20 00:11:19;;;;;;;;;;;22.60;74.80;;;;;;5012704;28;20363;-95
2022/07/20 00:11:20;;;;;;;;;;;22.50;74.60;;;;;;5013804;28;19950;-95
2022/07/20 00:13:51;;;;;;;;;;;22.40;74.80;;;;;;5013986;28;19943;-95
2022/07/20 00:16:17;;;;;;;;;;;22.40;73.90;;;;;;5014002;28;19946;-95
2022/07/20 00:18:43;;;;;;;;;;;22.50;73.90;;;;;;5013964;28;20432;-95
2022/07/20 00:21:08;;;;;;;;;;;22.60;75.90;;;;;;5013961;28;20458;-94
2022/07/20 00:23:34;;;;;;;;;;;22.50;75.70;;;;;;5013899;28;20357;-96
2022/07/20 00:25:59;;;;;;;;;;;22.40;75.60;;;;;;5013825;28;20001;-95
2022/07/20 00:28:25;;;;;;;;;;;22.30;72.70;;;;;;5013867;28;20031;-95
2022/07/20 00:30:50;;;;;;;;;;;22.40;74.70;;;;;;5013893;28;19990;-94
2022/07/20 00:33:16;;;;;;;;;;;22.40;75.10;;;;;;5013997;28;19945;-95
2022/07/20 00:35:41;;;;;;;;;;;22.40;75.10;;;;;;5014245;28;19965;-95
2022/07/20 00:38:07;;;;;;;;;;;22.50;74.30;;;;;;5013811;28;19949;-95
2022/07/20 00:40:32;;;;;;;;;;;22.50;75.50;;;;;;5013834;28;20318;-95
2022/07/20 00:42:58;;;;;;;;;;;22.50;75.60;;;;;;5012483;28;20318;-95
2022/07/20 00:45:23;;;;;;;;;;;22.50;74.80;;;;;;5013900;28;20336;-95
2022/07/20 00:47:51;;;;;;;;;;;22.50;75.40;;;;;;5013655;28;20317;-94
2022/07/20 00:50:17;;;;;;;;;;;22.50;76.20;;;;;;5015769;28;20411;-95
2022/07/20 00:52:43;;;;;;;;;;;22.60;76.00;;;;;;5016059;28;19985;-94
2022/07/20 00:55:08;;;;;;;;;;;22.50;76.00;;;;;;5016012;28;20308;-95
2022/07/20 00:57:34;;;;;;;;;;;22.50;75.70;;;;;;5017103;28;20059;-95
2022/07/20 01:00:00;;;;;;;;;;;22.50;75.00;;;;;;5017235;28;19947;-95
2022/07/20 01:02:25;;;;;;;;;;;22.50;75.50;;;;;;5017411;28;19952;-95
2022/07/20 01:04:51;;;;;;;;;;;22.50;75.20;;;;;;5017068;28;19967;-95
2022/07/20 01:07:17;;;;;;;;;;;22.50;75.60;;;;;;5017011;28;19940;-95
2022/07/20 01:09:43;;;;;;;;;;;22.50;75.60;;;;;;5015745;28;20025;-95
2022/07/20 01:12:09;;;;;;;;;;;22.50;75.60;;;;;;5016930;28;19994;-95
2022/07/20 01:14:35;;;;;;;;;;;22.40;75.40;;;;;;5032147;28;19970;-95
2022/07/20 01:17:00;;;;;;;;;;;22.30;76.00;;;;;;5016932;28;20455;-95
2022/07/20 01:19:26;;;;;;;;;;;22.20;76.50;;;;;;5017258;28;19941;-95
2022/07/20 01:21:51;;;;;;;;;;;22.20;77.60;;;;;;5016650;28;20064;-95
2022/07/20 01:24:17;;;;;;;;;;;22.20;77.10;;;;;;5017281;28;19987;-94
2022/07/20 01:26:44;;;;;;;;;;;22.10;77.50;;;;;;5016581;28;19955;-95
2022/07/20 01:29:10;;;;;;;;;;;22.00;77.70;;;;;;5016690;28;19939;-95
2022/07/20 01:31:36;;;;;;;;;;;21.70;77.80;;;;;;5016527;28;20418;-94
2022/07/20 01:34:02;;;;;;;;;;;21.60;78.30;;;;;;5016589;28;19940;-94
2022/07/20 01:36:27;;;;;;;;;;;21.60;78.10;;;;;;5016414;28;20382;-95
2022/07/20 01:38:53;;;;;;;;;;;21.60;78.30;;;;;;5016461;28;19943;-96
2022/07/20 01:41:19;;;;;;;;;;;21.60;78.50;;;;;;5016391;28;19947;-94
2022/07/20 01:43:44;;;;;;;;;;;21.50;79.00;;;;;;5016655;28;20309;-96
2022/07/20 01:46:10;;;;;;;;;;;21.50;79.10;;;;;;5016173;28;20061;-95
2022/07/20 01:48:35;;;;;;;;;;;21.60;79.10;;;;;;5016371;28;19944;-95
2022/07/20 01:51:01;;;;;;;;;;;21.80;78.80;;;;;;5016448;28;20414;-95
2022/07/20 01:53:26;;;;;;;;;;;21.80;78.90;;;;;;5016303;28;20378;-94
2022/07/20 01:55:52;;;;;;;;;;;21.90;79.10;;;;;;5016051;28;19966;-95
2022/07/20 01:58:18;;;;;;;;;;;21.90;79.30;;;;;;5016069;28;19944;-95
2022/07/20 02:00:44;;;;;;;;;;;21.90;79.10;;;;;;5015814;28;19992;-95
2022/07/20 02:03:09;;;;;;;;;;;22.00;78.80;;;;;;5015900;28;20015;-95
2022/07/20 02:05:35;;;;;;;;;;;21.80;78.60;;;;;;5015913;28;19963;-95
2022/07/20 02:08:01;;;;;;;;;;;21.80;78.70;;;;;;5015998;28;19945;-95
2022/07/20 02:10:26;;;;;;;;;;;21.90;78.20;;;;;;5016059;28;19942;-95
2022/07/20 02:12:52;;;;;;;;;;;22.00;77.80;;;;;;5016005;28;20043;-95
2022/07/20 02:18:10;;;;;;;;;;;22.00;78.90;;;;;;5016011;28;19955;-95
2022/07/20 02:20:36;;;;;;;;;;;21.90;78.70;;;;;;5015625;28;19975;-95
2022/07/20 02:23:02;;;;;;;;;;;21.80;79.00;;;;;;5015565;28;20452;-95
2022/07/20 02:25:28;;;;;;;;;;;21.80;78.70;;;;;;5015710;28;19982;-95
2022/07/20 02:27:54;;;;;;;;;;;21.80;78.60;;;;;;5015521;28;20394;-95
2022/07/20 02:30:19;;;;;;;;;;;21.70;78.80;;;;;;5014251;28;19949;-95
2022/07/20 02:32:45;;;;;;;;;;;21.60;79.30;;;;;;5015600;28;19945;-95
2022/07/20 02:35:10;;;;;;;;;;;21.80;78.90;;;;;;5014059;28;19956;-94
2022/07/20 02:37:36;;;;;;;;;;;21.70;78.70;;;;;;5015451;28;19934;-95
2022/07/20 02:40:02;;;;;;;;;;;21.50;79.30;;;;;;5015446;28;19942;-95
2022/07/20 02:42:27;;;;;;;;;;;21.40;79.80;;;;;;5015274;28;19953;-94
2022/07/20 02:44:53;;;;;;;;;;;21.30;80.10;;;;;;5015223;28;19956;-95
2022/07/20 02:47:18;;;;;;;;;;;21.30;80.10;;;;;;5015527;28;19990;-94
2022/07/20 02:49:44;;;;;;;;;;;21.30;80.10;;;;;;5015573;28;20065;-94
2022/07/20 02:52:09;;;;;;;;;;;21.30;80.00;;;;;;5015510;28;19940;-95
2022/07/20 02:54:35;;;;;;;;;;;21.30;80.10;;;;;;5015023;28;19940;-94
2022/07/20 02:57:00;;;;;;;;;;;21.30;80.10;;;;;;5014823;28;19943;-95
2022/07/20 02:59:26;;;;;;;;;;;21.20;79.70;;;;;;5015026;28;19957;-95
2022/07/20 03:01:51;;;;;;;;;;;21.30;80.40;;;;;;5014859;28;20407;-95
2022/07/20 03:04:17;;;;;;;;;;;21.40;80.20;;;;;;5015017;28;20322;-95
2022/07/20 03:06:42;;;;;;;;;;;21.50;79.60;;;;;;5014759;28;20410;-95
2022/07/20 03:09:08;;;;;;;;;;;21.50;79.90;;;;;;5014845;28;20420;-95
2022/07/20 03:11:33;;;;;;;;;;;21.40;79.30;;;;;;5014438;28;19982;-95
2022/07/20 03:13:59;;;;;;;;;;;21.30;79.40;;;;;;5014341;28;20385;-95
2022/07/20 03:16:25;;;;;;;;;;;21.30;79.40;;;;;;5014670;28;19944;-95
2022/07/20 03:18:50;;;;;;;;;;;21.30;79.80;;;;;;5014782;28;19941;-94
2022/07/20 03:21:16;;;;;;;;;;;21.20;80.20;;;;;;5014392;28;20399;-95
2022/07/20 03:23:41;;;;;;;;;;;21.30;80.20;;;;;;5014517;28;20393;-95
2022/07/20 03:26:07;;;;;;;;;;;21.30;80.40;;;;;;5014408;28;20014;-94
2022/07/20 03:28:32;;;;;;;;;;;21.30;80.00;;;;;;5013166;28;19996;-95
2022/07/20 03:30:58;;;;;;;;;;;21.30;79.70;;;;;;5014780;28;19950;-94
2022/07/20 03:33:23;;;;;;;;;;;21.30;80.00;;;;;;5013149;28;19954;-95
2022/07/20 03:35:49;;;;;;;;;;;21.30;81.00;;;;;;5014473;28;20318;-95
2022/07/20 03:38:14;;;;;;;;;;;21.20;81.50;;;;;;5014337;28;19939;-95
2022/07/20 03:40:40;;;;;;;;;;;21.20;80.70;;;;;;5014229;28;19982;-95
2022/07/20 03:43:06;;;;;;;;;;;21.10;80.00;;;;;;5014885;28;19941;-95
2022/07/20 03:45:31;;;;;;;;;;;21.20;80.10;;;;;;5014149;28;20032;-94
2022/07/20 03:47:57;;;;;;;;;;;21.30;79.70;;;;;;5014230;28;19949;-95
2022/07/20 03:50:22;;;;;;;;;;;21.20;80.00;;;;;;5014247;28;19943;-95
2022/07/20 03:52:48;;;;;;;;;;;21.20;79.90;;;;;;5014201;28;19983;-95
2022/07/20 03:55:14;;;;;;;;;;;21.10;80.60;;;;;;5012807;28;19943;-95
2022/07/20 03:57:39;;;;;;;;;;;20.90;81.40;;;;;;5014145;28;20026;-94
2022/07/20 04:00:05;;;;;;;;;;;20.80;80.20;;;;;;5014044;28;20028;-95
2022/07/20 04:02:31;;;;;;;;;;;20.90;79.30;;;;;;5014435;28;19946;-95
2022/07/20 04:04:56;;;;;;;;;;;21.00;78.80;;;;;;5014068;28;19964;-95
2022/07/20 04:07:22;;;;;;;;;;;21.20;78.30;;;;;;5013941;28;19948;-95
2022/07/20 04:09:47;;;;;;;;;;;21.40;79.20;;;;;;5014407;28;19991;-94
2022/07/20 04:12:18;;;;;;;;;;;21.50;78.70;;;;;;5014275;28;19940;-95
2022/07/20 04:14:44;;;;;;;;;;;21.50;78.80;;;;;;5014183;28;20025;-94
2022/07/20 04:17:09;;;;;;;;;;;21.50;78.60;;;;;;5014039;28;20046;-95
2022/07/20 04:19:35;;;;;;;;;;;21.50;78.30;;;;;;5013962;28;19963;-95
2022/07/20 04:22:02;;;;;;;;;;;21.50;77.80;;;;;;5012546;28;20102;-95
2022/07/20 04:24:27;;;;;;;;;;;21.60;78.10;;;;;;5016215;28;19941;-95
2022/07/20 04:26:53;;;;;;;;;;;21.80;77.60;;;;;;5017995;28;20115;-95
2022/07/20 04:29:18;;;;;;;;;;;21.80;77.70;;;;;;5017898;28;19964;-95
2022/07/20 04:31:44;;;;;;;;;;;21.80;78.80;;;;;;5017742;28;19950;-95
2022/07/20 04:34:10;;;;;;;;;;;21.90;79.00;;;;;;5017697;28;19951;-94
2022/07/20 04:36:35;;;;;;;;;;;21.90;77.20;;;;;;5017522;28;20004;-95
2022/07/20 04:39:01;;;;;;;;;;;21.90;78.20;;;;;;5017569;28;20026;-95
2022/07/20 04:41:26;;;;;;;;;;;21.90;77.50;;;;;;5017618;28;19940;-94
2022/07/20 04:43:52;;;;;;;;;;;21.90;77.10;;;;;;5017523;28;19939;-94
2022/07/20 04:46:17;;;;;;;;;;;22.00;77.70;;;;;;5017434;28;19966;-96
2022/07/20 04:48:43;;;;;;;;;;;22.10;78.40;;;;;;5017448;28;20321;-94
2022/07/20 04:51:08;;;;;;;;;;;22.00;78.60;;;;;;5017453;28;20395;-95
2022/07/20 04:53:34;;;;;;;;;;;22.00;78.60;;;;;;5017615;28;20390;-96
2022/07/20 04:55:59;;;;;;;;;;;22.00;77.60;;;;;;5017151;28;20343;-95
2022/07/20 04:58:25;;;;;;;;;;;22.20;77.00;;;;;;5017304;28;20399;-95
2022/07/20 05:00:51;;;;;;;;;;;22.30;77.30;;;;;;5017272;28;20162;-94
2022/07/20 05:03:16;;;;;;;;;;;22.30;77.30;;;;;;5017475;28;19940;-95
2022/07/20 05:05:42;;;;;;;;;;;22.50;76.30;;;;;;5016991;28;19971;-96
2022/07/20 05:08:08;;;;;;;;;;;22.60;75.70;;;;;;5017101;28;19938;-95
2022/07/20 05:10:34;;;;;;;;;;;22.80;75.70;;;;;;5017121;28;20142;-94
2022/07/20 05:13:00;;;;;;;;;;;22.90;75.70;;;;;;5016976;28;19946;-95
2022/07/20 05:15:25;;;;;;;;;;;23.00;75.80;;;;;;5017046;28;19941;-95
2022/07/20 05:17:51;;;;;;;;;;;23.10;75.90;;;;;;5017034;28;19984;-95
2022/07/20 05:20:17;;;;;;;;;;;23.20;75.60;;;;;;5016820;28;20448;-95
2022/07/20 05:22:42;;;;;;;;;;;23.20;75.70;;;;;;5016570;28;20074;-95
2022/07/20 05:25:08;;;;;;;;;;;23.20;75.60;;;;;;5015332;28;20422;-95
2022/07/20 05:27:33;;;;;;;;;;;23.30;74.60;;;;;;5016995;28;20041;-95
2022/07/20 05:29:59;;;;;;;;;;;23.40;74.60;;;;;;5016908;28;19939;-95
2022/07/20 05:32:24;;;;;;;;;;;23.60;73.40;;;;;;5016519;28;20399;-94
2022/07/20 05:34:50;;;;;;;;;;;23.80;72.70;;;;;;5015546;28;20409;-95
2022/07/20 05:37:16;;;;;;;;;;;23.90;72.90;;;;;;5016168;28;19958;-94
2022/07/20 05:39:41;;;;;;;;;;;24.00;70.70;;;;;;5016414;28;19948;-95
2022/07/20 05:42:07;;;;;;;;;;;24.20;68.90;;;;;;5016386;28;20041;-95
2022/07/20 05:44:32;;;;;;;;;;;24.30;68.50;;;;;;5016525;28;20441;-95
2022/07/20 05:46:58;;;;;;;;;;;24.40;68.40;;;;;;5016540;28;20407;-95
2022/07/20 05:49:24;;;;;;;;;;;24.50;68.40;;;;;;5016368;28;20008;-94
2022/07/20 05:51:49;;;;;;;;;;;24.60;67.60;;;;;;5016165;28;20410;-95
2022/07/20 05:54:15;;;;;;;;;;;24.60;67.10;;;;;;5018412;28;19942;-96
2022/07/20 05:56:40;;;;;;;;;;;24.70;66.80;;;;;;5016106;28;20316;-95
2022/07/20 05:59:06;;;;;;;;;;;24.70;66.70;;;;;;5024041;28;19955;-96
2022/07/20 06:01:32;;;;;;;;;;;24.80;66.20;;;;;;5020445;28;20398;-96
2022/07/20 06:03:57;;;;;;;;;;;24.90;65.60;;;;;;5017784;28;19939;-96
2022/07/20 06:06:23;;;;;;;;;;;24.90;64.50;;;;;;5018162;28;19972;-96
2022/07/20 06:08:48;;;;;;;;;;;25.00;64.80;;;;;;5018825;28;20007;-96
2022/07/20 06:11:14;;;;;;;;;;;25.10;64.10;;;;;;5018134;28;19954;-95
2022/07/20 06:13:40;;;;;;;;;;;25.20;63.60;;;;;;5015318;28;20543;-96
2022/07/20 06:16:05;;;;;;;;;;;25.30;63.70;;;;;;5016121;28;19965;-96
2022/07/20 06:18:31;;;;;;;;;;;25.40;63.50;;;;;;5018451;28;19949;-96
2022/07/20 06:20:57;;;;;;;;;;;25.50;63.20;;;;;;5016215;28;19966;-95
2022/07/20 06:23:22;;;;;;;;;;;25.80;60.40;;;;;;5015525;28;19987;-95
2022/07/20 06:25:48;;;;;;;;;;;25.90;58.90;;;;;;5016126;28;20051;-96
2022/07/20 06:28:13;;;;;;;;;;;26.00;57.50;;;;;;5015507;28;19978;-95
2022/07/20 06:30:39;;;;;;;;;;;26.20;55.70;;;;;;5015828;28;20001;-95
2022/07/20 06:33:04;;;;;;;;;;;26.30;53.70;;;;;;5015784;28;19949;-95
2022/07/20 06:35:30;;;;;;;;;;;26.50;53.70;;;;;;5015621;28;19959;-95
2022/07/20 06:37:56;;;;;;;;;;;26.60;53.60;;;;;;5015703;28;20384;-96
2022/07/20 06:40:22;;;;;;;;;;;26.70;51.70;;;;;;5015580;28;20029;-96
2022/07/20 06:42:47;;;;;;;;;;;26.70;50.80;;;;;;5019043;28;19986;-96
2022/07/20 06:45:13;;;;;;;;;;;26.70;51.20;;;;;;5015664;28;19998;-96
2022/07/20 06:47:39;;;;;;;;;;;26.80;49.90;;;;;;5015114;28;19942;-95
2022/07/20 06:50:05;;;;;;;;;;;26.80;49.80;;;;;;5013877;28;20365;-96
2022/07/20 06:52:31;;;;;;;;;;;26.90;50.10;;;;;;5015202;28;19977;-96
2022/07/20 06:54:57;;;;;;;;;;;26.90;49.50;;;;;;5015125;28;19971;-96
2022/07/20 06:57:23;;;;;;;;;;;27.10;49.40;;;;;;5015005;28;19992;-96
2022/07/20 06:59:49;;;;;;;;;;;27.20;50.30;;;;;;5015275;28;19938;-95
2022/07/20 07:02:14;;;;;;;;;;;27.30;51.40;;;;;;5014924;28;19937;-96
2022/07/20 07:04:40;;;;;;;;;;;27.30;51.50;;;;;;5015104;28;19966;-96
2022/07/20 07:07:05;;;;;;;;;;;27.40;52.60;;;;;;5014726;28;19943;-96
2022/07/20 07:09:31;;;;;;;;;;;27.50;51.10;;;;;;5015426;28;19943;-96
2022/07/20 07:11:57;;;;;;;;;;;27.60;49.10;;;;;;5014780;28;20403;-96
2022/07/20 07:14:22;;;;;;;;;;;27.70;50.20;;;;;;5015246;28;19951;-96
2022/07/20 07:16:48;;;;;;;;;;;27.70;50.00;;;;;;5014726;28;19953;-95
2022/07/20 07:19:13;;;;;;;;;;;27.90;49.40;;;;;;5014828;28;20367;-96
2022/07/20 07:21:39;;;;;;;;;;;28.00;49.20;;;;;;5021991;22;20045;-96
2022/07/20 07:24:05;;;;;;;;;;;28.10;47.20;;;;;;5014674;28;19944;-96
2022/07/20 07:26:30;;;;;;;;;;;28.20;48.70;;;;;;5014385;28;20411;-96
2022/07/20 07:28:56;;;;;;;;;;;28.30;48.40;;;;;;5013160;28;19945;-95
2022/07/20 07:31:21;;;;;;;;;;;28.40;47.30;;;;;;5014375;28;19981;-95
2022/07/20 07:33:47;;;;;;;;;;;28.50;48.00;;;;;;5014379;28;20430;-95
2022/07/20 07:36:13;;;;;;;;;;;28.50;47.80;;;;;;5012858;28;19959;-96
2022/07/20 07:38:38;;;;;;;;;;;28.50;46.60;;;;;;5014215;28;19953;-95
2022/07/20 07:41:04;;;;;;;;;;;28.50;47.30;;;;;;5014619;28;20398;-95
2022/07/20 07:43:30;;;;;;;;;;;28.60;46.50;;;;;;5014285;28;19952;-95
2022/07/20 07:45:55;;;;;;;;;;;28.60;46.30;;;;;;5014244;28;20347;-95
2022/07/20 07:48:21;;;;;;;;;;;28.60;46.20;;;;;;5012952;28;20011;-95
2022/07/20 07:50:47;;;;;;;;;;;28.70;45.70;;;;;;5014221;28;20418;-95
2022/07/20 07:53:12;;;;;;;;;;;28.70;46.00;;;;;;5014330;28;19943;-95
2022/07/20 07:55:39;;;;;;;;;;;28.80;45.90;;;;;;5014007;28;19946;-95
2022/07/20 07:58:05;;;;;;;;;;;28.80;47.20;;;;;;5013538;28;19942;-95
2022/07/20 08:00:31;;;;;;;;;;;28.90;48.20;;;;;;5014301;28;19950;-96
2022/07/20 08:02:56;;;;;;;;;;;29.00;45.50;;;;;;5014628;28;19946;-96
2022/07/20 08:05:22;;;;;;;;;;;29.00;47.40;;;;;;5014988;28;19966;-96
2022/07/20 08:07:48;;;;;;;;;;;29.20;46.40;;;;;;5017551;28;19990;-96
2022/07/20 08:10:13;;;;;;;;;;;29.20;47.00;;;;;;5017084;28;19995;-96
2022/07/20 08:12:39;;;;;;;;;;;29.30;46.40;;;;;;5014908;28;19945;-96
2022/07/20 08:15:05;;;;;;;;;;;29.40;46.60;;;;;;5014312;28;20004;-96
2022/07/20 08:17:31;;;;;;;;;;;29.50;45.00;;;;;;5014920;28;20442;-96
2022/07/20 08:19:57;;;;;;;;;;;29.60;45.60;;;;;;5013798;28;19943;-96
2022/07/20 08:22:23;;;;;;;;;;;29.60;46.10;;;;;;5013813;28;20493;-96
2022/07/20 08:24:48;;;;;;;;;;;29.70;45.10;;;;;;5013862;28;20358;-96
2022/07/20 08:27:14;;;;;;;;;;;29.80;45.40;;;;;;5014066;28;20357;-95
2022/07/20 08:29:39;;;;;;;;;;;29.80;45.10;;;;;;5013781;28;20310;-96
2022/07/20 08:32:05;;;;;;;;;;;29.80;44.60;;;;;;5013846;28;20347;-96
2022/07/20 08:34:30;;;;;;;;;;;29.80;42.00;;;;;;5013902;28;19948;-96
2022/07/20 08:36:56;;;;;;;;;;;29.80;43.40;;;;;;5014059;28;20325;-96
2022/07/20 08:39:22;;;;;;;;;;;29.80;44.20;;;;;;5012490;28;20389;-96
2022/07/20 08:41:48;;;;;;;;;;;29.90;43.70;;;;;;5012794;28;19993;-96
2022/07/20 08:44:13;;;;;;;;;;;30.00;45.60;;;;;;5013916;28;19985;-96
2022/07/20 08:46:41;;;;;;;;;;;30.00;42.80;;;;;;5014289;28;20007;-96
2022/07/20 08:49:07;;;;;;;;;;;30.10;41.00;;;;;;5013720;28;19993;-96
2022/07/20 08:51:33;;;;;;;;;;;30.20;40.90;;;;;;5013842;28;19937;-96
2022/07/20 08:53:58;;;;;;;;;;;30.20;42.40;;;;;;5013919;28;19945;-96
2022/07/20 08:56:24;;;;;;;;;;;30.20;44.80;;;;;;5013505;28;20409;-96
2022/07/20 08:58:49;;;;;;;;;;;30.40;43.10;;;;;;5013905;28;19971;-95
2022/07/20 09:01:16;;;;;;;;;;;30.50;42.20;;;;;;5014145;28;19945;-96
2022/07/20 09:03:44;;;;;;;;;;;30.50;42.40;;;;;;5135327;22;20047;-96
2022/07/20 09:06:10;;;;;;;;;;;30.70;42.90;;;;;;5029881;28;19968;-96
2022/07/20 09:08:56;;;;;;;;;;;30.70;41.90;;;;;;5037584;22;20026;-96
2022/07/20 09:11:33;;;;;;;;;;;30.70;42.90;;;;;;5020084;28;19941;-96
2022/07/20 09:14:00;;;;;;;;;;;30.70;44.30;;;;;;5020015;28;20395;-96
2022/07/20 09:16:30;;;;;;;;;;;30.80;44.10;;;;;;5017048;28;19967;-96
2022/07/20 09:18:56;;;;;;;;;;;30.70;39.30;;;;;;5017200;28;20030;-96
2022/07/20 09:21:27;;;;;;;;;;;30.70;40.10;;;;;;5017138;28;20347;-96
2022/07/20 09:23:54;;;;;;;;;;;30.80;40.40;;;;;;5016801;28;19947;-96
2022/07/20 09:26:20;;;;;;;;;;;30.90;42.70;;;;;;5017039;28;20048;-96
2022/07/20 09:28:47;;;;;;;;;;;31.00;40.70;;;;;;5016869;28;20389;-96
2022/07/20 09:31:16;;;;;;;;;;;31.10;38.10;;;;;;5016949;28;19975;-96
2022/07/20 09:33:55;;;;;;;;;;;31.20;39.00;;;;;;5016629;28;20405;-96
2022/07/20 09:36:23;;;;;;;;;;;31.30;41.00;;;;;;5017096;28;19963;-96
2022/07/20 09:38:48;;;;;;;;;;;31.30;37.50;;;;;;5015394;28;19938;-96
2022/07/20 09:41:22;;;;;;;;;;;31.30;36.90;;;;;;5016644;28;19951;-96
2022/07/20 09:43:48;;;;;;;;;;;31.30;39.10;;;;;;5016752;28;19946;-96
2022/07/20 09:46:14;;;;;;;;;;;31.50;38.10;;;;;;5016611;28;20027;-96
2022/07/20 09:48:44;;;;;;;;;;;31.60;37.90;;;;;;5016317;28;19948;-96
2022/07/20 09:51:21;;;;;;;;;;;31.50;36.40;;;;;;5016562;28;19941;-96
2022/07/20 09:53:47;;;;;;;;;;;31.60;36.70;;;;;;5016437;28;19990;-96
2022/07/20 09:56:15;;;;;;;;;;;31.70;39.90;;;;;;5016279;28;19980;-96
2022/07/20 09:58:41;;;;;;;;;;;31.80;35.30;;;;;;5016503;28;19944;-96
2022/07/20 10:01:07;;;;;;;;;;;31.90;36.80;;;;;;5016162;28;19941;-96
2022/07/20 10:03:33;;;;;;;;;;;31.90;35.40;;;;;;5016197;28;20426;-96
2022/07/20 10:05:58;;;;;;;;;;;32.00;37.60;;;;;;5016230;28;19962;-96
2022/07/20 10:08:24;;;;;;;;;;;32.20;35.50;;;;;;5015729;28;20048;-96
2022/07/20 10:10:50;;;;;;;;;;;32.20;36.70;;;;;;5016506;28;19962;-96
2022/07/20 10:13:15;;;;;;;;;;;32.20;35.00;;;;;;5016163;28;19946;-96
2022/07/20 10:15:45;;;;;;;;;;;32.20;35.20;;;;;;5016432;28;19938;-96
2022/07/20 10:18:12;;;;;;;;;;;32.30;36.70;;;;;;5015849;28;20416;-96
2022/07/20 10:20:38;;;;;;;;;;;32.40;33.10;;;;;;5016349;28;19942;-96
2022/07/20 10:23:12;;;;;;;;;;;32.40;34.20;;;;;;5015321;28;20042;-95
2022/07/20 10:25:37;;;;;;;;;;;32.40;32.50;;;;;;5015806;28;20398;-96
2022/07/20 10:28:22;;;;;;;;;;;32.50;33.90;;;;;;5015596;28;19971;-96
2022/07/20 10:30:51;;;;;;;;;;;32.60;35.00;;;;;;5015846;28;20051;-96
2022/07/20 10:33:16;;;;;;;;;;;32.70;34.00;;;;;;5030667;28;20296;-96
2022/07/20 10:35:42;;;;;;;;;;;32.80;34.70;;;;;;5015678;28;20037;-95
2022/07/20 10:38:10;;;;;;;;;;;32.90;34.10;;;;;;5015689;28;19942;-96
2022/07/20 10:41:31;;;;;;;;;;;32.90;34.40;;;;;;5015638;28;19979;-96
2022/07/20 10:43:21;;;;;;;;;;;32.90;33.50;;;;;;5015169;28;19955;-95
2022/07/20 10:45:46;;;;;;;;;;;32.90;34.80;;;;;;5015803;28;20058;-96
2022/07/20 10:48:12;;;;;;;;;;;33.10;33.10;;;;;;5015564;28;19949;-96
2022/07/20 10:50:38;;;;;;;;;;;33.20;33.30;;;;;;5015460;28;19945;-96
2022/07/20 10:53:13;;;;;;;;;;;33.30;33.60;;;;;;5015160;28;19986;-95
2022/07/20 10:55:38;;;;;;;;;;;33.20;33.60;;;;;;5015431;28;20026;-96
2022/07/20 10:58:04;;;;;;;;;;;33.30;34.50;;;;;;5015055;28;20035;-95
2022/07/20 11:00:30;;;;;;;;;;;33.50;34.80;;;;;;5015234;28;19937;-96
2022/07/20 11:02:59;;;;;;;;;;;33.60;31.40;;;;;;5015282;28;19950;-96
2022/07/20 11:05:24;;;;;;;;;;;33.50;32.30;;;;;;5015420;28;19963;-96
2022/07/20 11:07:50;;;;;;;;;;;33.50;33.30;;;;;;5014971;28;19977;-96
2022/07/20 11:10:34;;;;;;;;;;;33.40;32.10;;;;;;5015116;28;19941;-96
2022/07/20 11:13:02;;;;;;;;;;;33.50;32.90;;;;;;5014858;28;19942;-96
2022/07/20 11:15:47;;;;;;;;;;;33.60;32.00;;;;;;5015312;28;19938;-96
2022/07/20 11:18:20;;;;;;;;;;;33.70;31.60;;;;;;5014722;28;19977;-96
2022/07/20 11:21:08;;;;;;;;;;;34.00;29.60;;;;;;5014966;28;19942;-96
2022/07/20 11:23:52;;;;;;;;;;;34.20;33.20;;;;;;5008329;28;19950;-96
2022/07/20 11:26:18;;;;;;;;;;;34.40;31.90;;;;;;5014997;28;20333;-96
2022/07/20 11:28:49;;;;;;;;;;;34.40;32.00;;;;;;5014570;28;19941;-96
2022/07/20 11:31:22;;;;;;;;;;;34.60;32.10;;;;;;5014556;28;20055;-96
2022/07/20 11:33:49;;;;;;;;;;;34.80;29.80;;;;;;5012249;28;19949;-96
2022/07/20 11:36:43;;;;;;;;;;;34.90;29.90;;;;;;5014599;28;19966;-96
2022/07/20 11:39:10;;;;;;;;;;;35.10;31.20;;;;;;5005802;28;19953;-96
2022/07/20 11:41:37;;;;;;;;;;;35.20;31.60;;;;;;5014375;28;19946;-96
2022/07/20 11:44:04;;;;;;;;;;;35.40;31.30;;;;;;5013962;28;20421;-96
2022/07/20 11:46:40;;;;;;;;;;;35.60;30.50;;;;;;5015238;28;20336;-96
2022/07/20 11:49:07;;;;;;;;;;;35.70;29.70;;;;;;5014627;28;19969;-96
2022/07/20 11:51:35;;;;;;;;;;;35.90;29.90;;;;;;5014326;28;19966;-96
2022/07/20 11:54:01;;;;;;;;;;;35.70;29.80;;;;;;5014535;28;19942;-96
2022/07/20 11:56:28;;;;;;;;;;;35.80;28.50;;;;;;5014192;28;19952;-96
2022/07/20 11:58:55;;;;;;;;;;;35.80;26.90;;;;;;5014500;28;19938;-96
2022/07/20 12:01:22;;;;;;;;;;;36.00;30.10;;;;;;5014103;28;19941;-96
2022/07/20 12:03:52;;;;;;;;;;;36.20;30.30;;;;;;5015293;28;19937;-96
2022/07/20 12:06:18;;;;;;;;;;;36.20;26.10;;;;;;5017794;28;20008;-96
2022/07/20 12:08:43;;;;;;;;;;;36.30;28.30;;;;;;5025810;28;20416;-96
2022/07/20 12:11:09;;;;;;;;;;;36.50;30.30;;;;;;5027426;28;19940;-96
2022/07/20 12:13:49;;;;;;;;;;;36.90;28.50;;;;;;5031328;28;19947;-96
2022/07/20 12:16:15;;;;;;;;;;;37.40;25.90;;;;;;5029474;28;19942;-96
2022/07/20 12:18:47;;;;;;;;;;;37.70;25.40;;;;;;5032935;28;19947;-96
2022/07/20 12:21:24;;;;;;;;;;;38.10;27.90;;;;;;5033134;28;19940;-96
2022/07/20 12:23:51;;;;;;;;;;;38.30;26.70;;;;;;5029965;28;19953;-96
2022/07/20 12:26:30;;;;;;;;;;;38.00;25.40;;;;;;5026745;28;20081;-96
2022/07/20 12:29:00;;;;;;;;;;;37.60;25.90;;;;;;5032972;28;19955;-96
2022/07/20 12:31:27;;;;;;;;;;;38.20;25.70;;;;;;5033016;28;19945;-96
2022/07/20 12:33:59;;;;;;;;;;;38.60;24.60;;;;;;5033664;28;19941;-96
2022/07/20 12:36:35;;;;;;;;;;;38.70;24.30;;;;;;5032869;28;19962;-96
2022/07/20 12:39:01;;;;;;;;;;;39.10;25.30;;;;;;5031156;28;19946;-96
2022/07/20 12:41:27;;;;;;;;;;;39.30;25.60;;;;;;5028419;28;19946;-96
2022/07/20 12:43:53;;;;;;;;;;;39.30;24.80;;;;;;5031570;28;19945;-96
2022/07/20 12:48:54;;;;;;;;;;;39.50;23.70;;;;;;5584378;22;19975;-96
2022/07/20 12:51:20;;;;;;;;;;;39.00;22.90;;;;;;5032017;28;20026;-96
2022/07/20 12:53:48;;;;;;;;;;;39.10;23.00;;;;;;5051530;28;20030;-96
2022/07/20 12:56:17;;;;;;;;;;;39.40;23.70;;;;;;5034539;28;19949;-96
2022/07/20 12:58:46;;;;;;;;;;;38.80;24.70;;;;;;5050803;28;19986;-97
2022/07/20 13:01:15;;;;;;;;;;;38.60;25.00;;;;;;5031810;28;19993;-96
2022/07/20 13:03:40;;;;;;;;;;;39.00;23.30;;;;;;5026093;28;19943;-96
2022/07/20 13:06:06;;;;;;;;;;;39.60;25.50;;;;;;5021291;28;19977;-96
2022/07/20 13:08:33;;;;;;;;;;;40.20;23.00;;;;;;5031766;28;19952;-96
2022/07/20 13:16:11;;;;;;;;;;;42.20;22.70;;;;;;5331218;22;20225;31
2022/07/20 13:24:15;;;;;;;;;;;42.80;21.40;;;;;;5826008;22;19978;-96
2022/07/20 13:31:54;;;;;;;;;;;42.10;20.40;;;;;;5032464;26;19991;-96
2022/07/20 13:34:20;;;;;;;;;;;40.70;22.50;;;;;;5783682;23;19998;-96
2022/07/20 13:36:48;;;;;;;;;;;40.00;22.20;;;;;;5036765;28;20000;-96
2022/07/20 13:55:35;;;;;;;;;;;43.50;21.90;;;;;;5370087;23;19975;-96
2022/07/20 14:01:10;;;;;;;;;;;44.20;20.50;;;;;;5931796;23;21151;-96
2022/07/20 14:11:51;;;;;;;;;;;43.40;20.50;;;;;;5147487;23;19940;-96
2022/07/20 14:14:21;;;;;;;;;;;43.50;20.70;;;;;;5048276;28;19943;-96
2022/07/20 14:33:33;;;;;;;;;;;42.60;20.70;;;;;;5317918;23;19975;-96
2022/07/20 15:02:22;;;;;;;;;;;45.80;19.60;;;;;;5331887;22;19982;-96
2022/07/20 15:04:48;;;;;;;;;;;46.20;19.60;;;;;;5076955;28;20401;-97
2022/07/20 15:07:15;;;;;;;;;;;45.60;19.40;;;;;;5063230;28;19942;-96
2022/07/20 15:09:40;;;;;;;;;;;45.40;20.30;;;;;;5047077;28;19948;-96
2022/07/20 15:23:04;;;;;;;;;;;44.50;21.40;;;;;;5030150;22;19970;-96
2022/07/20 15:25:32;;;;;;;;;;;43.80;20.70;;;;;;5002716;28;19988;-96
2022/07/20 15:28:06;;;;;;;;;;;43.50;20.40;;;;;;5020614;28;19938;-97
2022/07/20 15:33:09;;;;;;;;;;;43.70;22.10;;;;;;5369544;23;19989;-96
2022/07/20 15:35:37;;;;;;;;;;;43.70;22.80;;;;;;5011996;28;20003;-96
2022/07/20 15:38:10;;;;;;;;;;;43.60;22.00;;;;;;4981531;28;19948;-96
2022/07/20 15:40:46;;;;;;;;;;;43.50;21.60;;;;;;5000043;28;19992;-96
2022/07/20 15:43:24;;;;;;;;;;;43.70;21.20;;;;;;4999999;28;19937;-96
2022/07/20 15:45:55;;;;;;;;;;;43.30;21.10;;;;;;4982451;28;19964;-96
2022/07/20 15:48:31;;;;;;;;;;;43.60;21.50;;;;;;4982640;28;19948;-96
2022/07/20 15:51:01;;;;;;;;;;;43.80;21.00;;;;;;4981149;28;19982;-96
2022/07/20 15:53:29;;;;;;;;;;;43.50;20.80;;;;;;4978774;28;20003;-96
2022/07/20 15:55:55;;;;;;;;;;;42.90;23.00;;;;;;4978051;28;19953;-96
2022/07/20 15:58:25;;;;;;;;;;;42.50;24.60;;;;;;4981336;28;19952;-96
2022/07/20 16:00:58;;;;;;;;;;;42.30;23.00;;;;;;4982655;28;19949;-96